Time;durP1;ratioP1;P1;durP2;ratioP2;P2;SDS_P1;SDS_P2;PMS_P1;PMS_P2;Temp;Humidity;BMP_temperature;BMP_pressure;BME280_temperature;BME280_humidity;BME280_pressure;Samples;Min_cycle;Max_cycle;Signal;HPM_P1;HPM_P2
2022/02/06 00:00:26;;;;;;;4.90;2.00;;;4.60;66.70;;;4.80;56.15;98130.53;4953761;29;20057;-41
2022/02/06 00:02:55;;;;;;;3.60;1.67;;;4.50;67.10;;;4.76;56.40;98136.16;4954777;29;20047;-41
2022/02/06 00:05:24;;;;;;;4.23;2.10;;;4.40;67.30;;;4.77;55.96;98127.28;4954439;29;20065;-41
2022/02/06 00:07:52;;;;;;;5.17;2.00;;;4.40;67.30;;;4.74;56.02;98123.91;4954780;29;20066;-41
2022/02/06 00:10:20;;;;;;;5.80;1.67;;;4.40;67.70;;;4.71;56.48;98116.25;4954878;28;20043;-41
2022/02/06 00:12:48;;;;;;;5.77;1.87;;;4.30;67.80;;;4.70;56.02;98117.19;4954459;29;20055;-41
2022/02/06 00:15:18;;;;;;;3.60;1.67;;;4.30;67.90;;;4.69;56.60;98104.97;4952974;28;20053;-41
2022/02/06 00:17:48;;;;;;;4.57;1.93;;;4.30;68.00;;;4.65;56.25;98108.78;4956282;29;20055;-41
2022/02/06 00:20:16;;;;;;;3.33;1.60;;;4.30;68.30;;;4.61;56.30;98112.59;4955692;29;20265;-40
2022/02/06 00:22:50;;;;;;;7.33;2.30;;;4.20;68.20;;;4.57;56.51;98097.94;4954127;29;20352;-41
2022/02/06 00:25:29;;;;;;;4.53;2.00;;;4.20;68.50;;;4.52;56.43;98105.38;4954465;29;20052;-41
2022/02/06 00:28:22;;;;;;;3.90;2.03;;;4.00;69.00;;;4.47;56.29;98092.50;4954168;29;20077;-41
2022/02/06 00:35:59;;;;;;;2.60;1.83;;;4.10;68.70;;;4.47;56.33;98081.97;4953699;28;20058;-41
2022/02/06 00:38:34;;;;;;;5.93;1.77;;;4.10;68.90;;;4.45;56.17;98083.88;4953915;28;20051;-41
2022/02/06 00:41:15;;;;;;;3.93;1.90;;;4.10;68.80;;;4.44;56.71;98081.34;4954268;29;20077;-41
2022/02/06 00:43:43;;;;;;;4.40;1.77;;;4.00;69.20;;;4.42;56.36;98070.94;4954783;29;20059;-41
2022/02/06 00:46:13;;;;;;;4.53;2.07;;;4.00;69.50;;;4.42;56.77;98065.66;4954318;28;20055;-41
2022/02/06 00:48:45;;;;;;;3.83;2.10;;;4.00;69.30;;;4.38;57.04;98061.56;4955357;29;20055;-41
2022/02/06 00:51:18;;;;;;;6.27;2.17;;;3.90;69.40;;;4.39;57.14;98059.75;4955005;28;20069;-41
2022/02/06 00:53:46;;;;;;;3.70;1.83;;;4.00;69.30;;;4.36;57.01;98052.91;4955256;29;20562;-41
2022/02/06 00:56:14;;;;;;;7.97;2.00;;;3.90;69.80;;;4.34;56.93;98047.75;4954521;28;20051;-41
2022/02/06 00:58:42;;;;;;;4.70;1.80;;;3.90;69.60;;;4.39;56.86;98047.41;4953312;29;20047;-41
2022/02/06 01:01:10;;;;;;;4.83;1.97;;;4.00;69.20;;;4.39;57.34;98052.69;4954713;29;20043;-41
2022/02/06 01:03:38;;;;;;;6.10;2.10;;;4.00;69.20;;;4.36;57.48;98041.50;4953408;28;20053;-41
2022/02/06 01:06:06;;;;;;;5.90;2.47;;;4.00;69.40;;;4.35;56.89;98043.31;4954109;28;20065;-41
2022/02/06 01:08:34;;;;;;;6.10;1.70;;;4.00;69.50;;;4.34;56.96;98039.84;4953491;28;20660;-41
2022/02/06 01:11:06;;;;;;;3.43;2.03;;;3.90;69.80;;;4.33;57.42;98040.78;4950575;29;20051;-41
2022/02/06 01:13:51;;;;;;;4.17;1.90;;;3.90;70.00;;;4.32;57.24;98046.16;4951707;29;20517;-41
2022/02/06 01:16:28;;;;;;;3.93;2.00;;;3.90;70.30;;;4.30;56.68;98033.13;4951439;29;20047;-41
2022/02/06 01:19:07;;;;;;;6.37;1.90;;;3.90;70.50;;;4.29;57.01;98038.50;4950588;29;20050;-41
2022/02/06 01:21:58;;;;;;;3.60;1.70;;;3.90;70.40;;;4.30;57.61;98045.44;4952017;29;20043;-42
2022/02/06 01:26:59;;;;;;;3.63;1.67;;;3.90;70.60;;;4.29;57.31;98041.13;4951319;29;20237;-42
2022/02/06 01:32:32;;;;;;;3.03;1.57;;;3.90;70.50;;;4.30;57.71;98056.84;4938013;29;20069;-41
2022/02/06 01:35:09;;;;;;;4.93;2.80;;;3.90;70.20;;;4.32;57.28;98048.81;4950161;29;20379;-41
2022/02/06 01:37:46;;;;;;;3.93;1.90;;;4.00;70.00;;;4.35;57.44;98048.59;4950090;29;20105;-41
2022/02/06 01:43:05;;;;;;;3.87;1.93;;;3.90;70.00;;;4.32;57.08;98048.81;4951673;29;20054;-41
2022/02/06 01:45:54;;;;;;;4.70;1.77;;;3.90;70.20;;;4.34;57.18;98039.84;4949874;29;20145;-41
2022/02/06 02:18:37;;;;;;;3.10;1.03;;;5.00;65.20;;;5.08;55.66;97973.63;4950395;29;20051;-41
2022/02/06 02:47:36;;;;;;;3.53;1.40;;;5.20;64.60;;;5.22;54.86;97930.31;4949411;29;20161;-36
2022/02/06 02:50:11;;;;;;;2.27;0.90;;;5.20;64.30;;;5.25;54.68;97916.03;4948863;29;20069;-36
2022/02/06 02:55:29;;;;;;;5.03;1.63;;;5.30;64.50;;;5.26;54.62;97896.63;4947127;29;20055;-36
2022/02/06 03:03:23;;;;;;;2.87;1.23;;;5.40;63.20;;;5.32;54.59;97881.09;4949002;29;20341;-40
2022/02/06 03:05:54;;;;;;;3.03;1.38;;;5.40;63.70;;;5.34;55.46;97883.63;4948926;29;20062;-40
2022/02/06 03:08:22;;;;;;;1.63;1.03;;;5.40;63.60;;;5.28;55.16;97876.22;4948761;29;20063;-40
2022/02/06 03:10:53;;;;;;;2.20;1.00;;;5.40;63.40;;;5.32;55.16;97875.84;4947869;29;20248;-41
2022/02/06 03:13:24;;;;;;;4.47;1.10;;;5.40;63.70;;;5.33;54.75;97874.88;4932835;29;20348;-40
2022/02/06 03:18:23;;;;;;;4.63;1.20;;;5.40;63.50;;;5.44;55.28;97865.25;4949377;29;20057;-40
2022/02/06 03:20:53;;;;;;;3.17;1.17;;;5.50;63.70;;;5.43;54.41;97867.06;4949357;29;20390;-40
2022/02/06 03:23:23;;;;;;;2.67;1.30;;;5.50;62.30;;;5.40;54.16;97867.28;4948060;29;20062;-40
2022/02/06 03:25:53;;;;;;;2.03;1.30;;;5.50;62.50;;;5.35;53.96;97853.66;4948429;29;20062;-40
2022/02/06 03:28:23;;;;;;;4.10;1.30;;;5.50;61.60;;;5.42;54.00;97867.19;4949406;29;20060;-40
2022/02/06 03:30:52;;;;;;;2.77;1.60;;;5.50;62.40;;;5.44;53.96;97857.34;4949004;29;20362;-40
2022/02/06 03:33:20;;;;;;;4.67;1.20;;;5.60;62.80;;;5.46;53.93;97865.97;4947373;28;20055;-40
2022/02/06 03:35:48;;;;;;;4.83;1.57;;;5.60;62.60;;;5.49;53.97;97865.72;4947870;29;20050;-40
2022/02/06 03:38:16;;;;;;;3.63;1.40;;;5.60;62.60;;;5.51;53.50;97858.53;4949288;29;20367;-40
2022/02/06 03:46:21;;;;;;;1.67;1.50;;;5.60;62.30;;;5.50;53.78;97852.38;4948687;29;20283;-40
2022/02/06 03:49:07;;;;;;;5.47;1.40;;;5.60;62.30;;;5.55;54.20;97869.69;4948780;29;20054;-40
2022/02/06 03:51:37;;;;;;;4.23;1.20;;;5.70;62.10;;;5.52;53.76;97850.47;4948273;29;20069;-40
2022/02/06 03:54:09;;;;;;;2.57;1.20;;;5.60;61.20;;;5.52;53.80;97850.47;4947915;29;20067;-41
2022/02/06 03:56:39;;;;;;;2.60;1.17;;;5.70;61.70;;;5.56;54.18;97840.47;4933136;29;20062;-41
2022/02/06 03:59:07;;;;;;;3.97;1.10;;;5.70;61.70;;;5.59;54.47;97836.78;4948907;29;20053;-41
2022/02/06 04:01:35;;;;;;;4.13;1.40;;;5.70;62.10;;;5.50;53.53;97828.63;4948421;29;20062;-41
2022/02/06 04:04:03;;;;;;;4.63;1.23;;;5.70;61.30;;;5.56;54.03;97831.72;4949275;29;20063;-41
2022/02/06 04:06:30;;;;;;;2.20;0.83;;;5.70;61.60;;;5.61;54.16;97826.91;4948715;29;20240;-41
2022/02/06 04:08:58;;;;;;;3.03;1.00;;;5.70;62.20;;;5.58;53.21;97841.19;4947732;29;20069;-41
2022/02/06 04:11:47;;;;;;;4.10;1.50;;;5.70;61.50;;;5.58;54.27;97822.72;4947742;29;20363;-41
2022/02/06 04:14:28;;;;;;;5.53;1.97;;;5.70;62.00;;;5.66;54.42;97822.94;4947575;29;20055;-41
2022/02/06 04:17:06;;;;;;;6.57;1.30;;;5.70;62.20;;;5.68;53.80;97810.44;4949193;29;20047;-41
2022/02/06 04:19:34;;;;;;;5.37;1.57;;;5.80;62.10;;;5.75;54.01;97799.38;4948386;29;20439;-41
2022/02/06 04:22:02;;;;;;;6.77;2.33;;;5.80;62.10;;;5.75;54.02;97784.34;4949859;28;20051;-41
2022/02/06 04:24:30;;;;;;;4.97;1.53;;;5.80;62.10;;;5.77;54.05;97785.06;4948700;28;20375;-41
2022/02/06 04:26:59;;;;;;;5.20;1.87;;;5.80;61.60;;;5.75;53.47;97804.66;4948286;29;20055;-41
2022/02/06 04:29:27;;;;;;;6.40;2.67;;;5.80;61.30;;;5.70;53.96;97781.25;4947658;29;20059;-41
2022/02/06 04:31:55;;;;;;;3.80;1.57;;;5.70;61.60;;;5.73;53.65;97781.00;4948306;29;20059;-41
2022/02/06 04:34:24;;;;;;;2.23;1.10;;;5.70;61.90;;;5.65;53.29;97788.72;4948517;29;20337;-41
2022/02/06 04:37:13;;;;;;;5.50;2.10;;;5.70;60.90;;;5.70;53.96;97792.66;4948046;29;20442;-41
2022/02/06 05:15:42;;;;;;;6.57;1.80;;;5.40;63.40;;;5.46;55.02;97721.56;4950877;29;20062;-40
2022/02/06 05:33:25;;;;;;;3.57;2.23;;;5.30;64.50;;;5.47;54.76;97722.44;4950753;29;20337;-41
2022/02/06 05:35:53;;;;;;;4.20;2.33;;;5.40;64.20;;;5.49;54.77;97733.69;4950951;29;20047;-41
2022/02/06 05:38:21;;;;;;;5.17;2.00;;;5.40;64.30;;;5.50;54.80;97741.47;4951479;29;20051;-41
2022/02/06 05:40:49;;;;;;;7.87;1.73;;;5.40;64.40;;;5.49;54.63;97745.09;4949377;29;20360;-41
2022/02/06 05:43:16;;;;;;;3.30;1.57;;;5.50;64.50;;;5.56;54.66;97748.03;4950370;29;20333;-41
2022/02/06 05:45:44;;;;;;;4.23;2.07;;;5.50;64.70;;;5.63;55.12;97753.69;4949675;29;20349;-41
2022/02/06 05:48:12;;;;;;;5.23;1.47;;;5.50;64.60;;;5.62;55.30;97750.22;4951307;29;20053;-41
2022/02/06 05:50:44;;;;;;;2.23;1.23;;;5.60;64.30;;;5.64;54.66;97750.91;4950292;29;20063;-41
2022/02/06 05:53:14;;;;;;;9.30;2.40;;;5.60;64.30;;;5.57;54.55;97741.81;4950757;29;20240;-41
2022/02/06 05:55:44;;;;;;;3.67;1.67;;;5.60;64.00;;;5.63;55.49;97756.31;4949011;28;20047;-41
2022/02/06 05:58:12;;;;;;;5.60;1.37;;;5.50;64.50;;;5.67;54.91;97755.09;4949985;29;20039;-41
2022/02/06 06:00:40;;;;;;;3.03;1.90;;;5.60;64.50;;;5.67;54.94;97755.94;4950674;29;20069;-41
2022/02/06 06:03:08;;;;;;;4.07;1.47;;;5.60;64.50;;;5.56;54.89;97736.66;4950218;29;20425;-41
2022/02/06 06:05:36;;;;;;;4.00;1.20;;;5.50;64.40;;;5.60;54.73;97741.53;4949865;29;20051;-41
2022/02/06 06:08:04;;;;;;;3.40;1.30;;;5.50;64.70;;;5.57;54.66;97739.16;4949967;29;20059;-41
2022/02/06 06:10:32;;;;;;;3.80;1.40;;;5.50;64.60;;;5.61;55.45;97739.75;4949339;29;20055;-41
2022/02/06 06:13:01;;;;;;;4.03;1.27;;;5.50;64.60;;;5.62;54.94;97728.22;4949065;29;20368;-41
2022/02/06 06:15:30;;;;;;;7.40;1.87;;;5.50;64.60;;;5.61;55.43;97729.19;4948944;29;20051;-41
2022/02/06 06:18:03;;;;;;;2.80;1.23;;;5.50;64.80;;;5.61;55.06;97732.66;4950415;29;20047;-41
2022/02/06 06:20:35;;;;;;;4.77;1.40;;;5.60;64.80;;;5.65;54.82;97727.97;4949227;29;20061;-40
2022/02/06 06:23:02;;;;;;;3.87;1.20;;;5.60;64.70;;;5.66;55.16;97730.50;4949143;29;20058;-41
2022/02/06 06:25:50;;;;;;;2.47;1.47;;;5.60;64.50;;;5.68;54.49;97725.06;4948580;29;20430;-41
2022/02/06 06:28:23;;;;;;;2.93;1.70;;;5.60;64.50;;;5.68;55.29;97723.28;4949734;29;20055;-41
2022/02/06 06:30:54;;;;;;;1.70;1.20;;;5.60;64.70;;;5.69;55.74;97706.44;4950415;29;20043;-41
2022/02/06 06:33:22;;;;;;;4.53;1.37;;;5.60;64.80;;;5.70;55.03;97704.66;4950016;29;20047;-41
2022/02/06 06:35:55;;;;;;;2.33;1.53;;;5.60;65.10;;;5.62;55.19;97702.66;4949329;29;20071;-41
2022/02/06 06:38:22;;;;;;;3.80;1.27;;;5.50;65.30;;;5.61;55.04;97705.44;4949209;29;20047;-41
2022/02/06 06:40:50;;;;;;;4.27;1.40;;;5.50;65.10;;;5.61;55.65;97698.34;4950067;29;20061;-41
2022/02/06 06:43:18;;;;;;;3.30;1.40;;;5.50;65.20;;;5.63;55.44;97704.31;4948969;29;20057;-41
2022/02/06 06:45:46;;;;;;;8.70;1.60;;;5.60;65.10;;;5.67;55.34;97707.56;4949902;29;20472;-41
2022/02/06 06:48:14;;;;;;;5.37;1.67;;;5.50;65.30;;;5.69;55.73;97713.53;4950749;29;20061;-41
2022/02/06 06:50:42;;;;;;;3.23;1.30;;;5.60;65.20;;;5.68;55.51;97693.34;4929583;29;20051;-41
2022/02/06 06:53:11;;;;;;;5.10;2.07;;;5.60;65.10;;;5.69;55.24;97692.41;4930066;29;20061;-41
2022/02/06 06:55:43;;;;;;;6.23;1.67;;;5.60;65.20;;;5.64;55.29;97702.50;4930662;29;20047;-41
2022/02/06 06:58:19;;;;;;;3.67;1.40;;;5.60;65.00;;;5.63;54.99;97704.31;4929549;29;20054;-41
2022/02/06 07:03:15;;;;;;;10.17;1.53;;;5.60;65.00;;;5.66;55.41;97697.94;4930181;29;20048;-41
2022/02/06 07:05:43;;;;;;;5.43;1.33;;;5.60;65.30;;;5.64;55.23;97694.59;4929595;29;20310;-41
2022/02/06 07:08:11;;;;;;;2.77;1.50;;;5.60;65.20;;;5.65;56.15;97675.97;4930468;29;20365;-41
2022/02/06 07:10:38;;;;;;;5.00;1.30;;;5.60;65.30;;;5.67;55.48;97660.00;4930766;29;20060;-41
2022/02/06 07:13:06;;;;;;;4.27;1.97;;;5.60;65.50;;;5.68;55.79;97670.44;4929646;29;20055;-41
2022/02/06 07:15:34;;;;;;;2.57;1.47;;;5.60;65.40;;;5.70;56.03;97675.59;4930103;29;20505;-41
2022/02/06 07:18:02;;;;;;;2.63;1.43;;;5.70;65.30;;;5.67;55.45;97666.13;4929960;29;20043;-41
2022/02/06 07:20:32;;;;;;;3.20;1.23;;;5.70;65.30;;;5.73;55.51;97665.59;4930028;29;20054;-41
2022/02/06 07:23:01;;;;;;;5.33;1.40;;;5.70;65.20;;;5.76;55.97;97658.38;4929710;29;20052;-41
2022/02/06 07:25:29;;;;;;;3.87;1.40;;;5.80;65.30;;;5.79;55.40;97658.13;4929413;29;20043;-41
2022/02/06 07:27:57;;;;;;;6.20;1.20;;;5.80;65.40;;;5.81;55.74;97651.72;4928658;29;20371;-41
2022/02/06 07:30:26;;;;;;;5.10;1.50;;;5.80;65.30;;;5.86;55.51;97654.00;4930056;29;20063;-41
2022/02/06 07:32:54;;;;;;;3.73;1.47;;;5.80;65.40;;;5.87;55.43;97637.16;4931473;29;20048;-41
2022/02/06 07:35:22;;;;;;;4.20;1.23;;;5.90;66.30;;;5.86;55.91;97640.78;4929880;29;20055;-41
2022/02/06 07:37:55;;;;;;;4.00;1.50;;;5.90;65.30;;;5.87;55.77;97645.94;4930432;29;20249;-41
2022/02/06 07:40:24;;;;;;;3.17;1.35;;;5.90;65.20;;;5.89;55.96;97654.56;4929072;29;20055;-41
2022/02/06 07:42:52;;;;;;;4.77;1.27;;;5.90;65.40;;;5.88;55.86;97639.66;4929213;29;20354;-41
2022/02/06 07:45:31;;;;;;;2.83;1.57;;;5.90;65.40;;;5.85;55.45;97644.38;4929411;29;20067;-41
2022/02/06 07:47:59;;;;;;;3.77;1.40;;;5.90;65.20;;;5.86;55.60;97623.13;4948361;29;20353;-41
2022/02/06 07:50:26;;;;;;;2.57;2.13;;;5.90;65.20;;;5.86;55.94;97615.19;4981213;28;20059;-41
2022/02/06 07:52:54;;;;;;;3.10;1.20;;;5.90;65.20;;;5.89;55.81;97614.94;4967059;28;20386;-41
2022/02/06 07:55:22;;;;;;;3.60;1.33;;;5.90;65.60;;;5.89;55.70;97614.94;4965702;28;20065;-41
2022/02/06 07:57:50;;;;;;;3.47;1.30;;;5.90;65.70;;;5.94;56.21;97609.25;4966319;28;20260;-41
2022/02/06 08:00:18;;;;;;;9.47;2.00;;;5.90;65.70;;;5.95;55.78;97586.28;4965963;28;20058;-41
2022/02/06 08:02:46;;;;;;;2.97;1.33;;;5.90;65.80;;;5.97;55.33;97582.59;4967215;28;20057;-41
2022/02/06 08:05:17;;;;;;;1.83;1.27;;;6.00;65.70;;;5.89;55.74;97570.03;4965368;28;20053;-41
2022/02/06 08:07:47;;;;;;;3.37;2.23;;;6.00;65.40;;;5.86;56.29;97577.38;4966869;28;20055;-41
2022/02/06 08:10:19;;;;;;;6.43;2.50;;;6.00;65.50;;;5.89;56.33;97575.31;4966488;28;20344;-41
2022/02/06 08:12:56;;;;;;;3.30;1.37;;;6.00;65.90;;;5.96;56.41;97572.97;4966597;28;20059;-41
2022/02/06 08:15:24;;;;;;;5.07;1.90;;;6.00;65.90;;;6.00;55.81;97561.16;4965691;28;20225;-41
2022/02/06 08:17:53;;;;;;;6.73;3.40;;;6.00;66.00;;;6.03;56.45;97565.34;4966825;28;20050;-42
2022/02/06 08:20:22;;;;;;;4.77;2.07;;;6.00;66.00;;;6.02;56.21;97568.97;4970372;28;20352;-41
2022/02/06 08:22:52;;;;;;;4.50;2.30;;;6.00;65.90;;;6.03;56.43;97558.28;4969779;28;20050;-41
2022/02/06 08:25:20;;;;;;;4.80;1.70;;;6.10;66.10;;;6.01;55.99;97552.28;4970994;28;20112;-41
2022/02/06 08:27:49;;;;;;;3.60;1.57;;;6.00;65.90;;;6.02;55.60;97540.72;4985338;28;20364;-41
2022/02/06 08:30:17;;;;;;;6.33;2.93;;;6.10;66.00;;;6.04;56.67;97541.44;4970809;28;20053;-41
2022/02/06 08:32:45;;;;;;;1.83;1.00;;;6.10;66.10;;;5.97;56.82;97550.03;4965363;28;20054;-41
2022/02/06 08:35:13;;;;;;;4.73;1.70;;;6.10;65.80;;;6.00;56.00;97518.88;4970409;28;20218;-41
2022/02/06 08:37:41;;;;;;;2.67;1.80;;;6.10;66.00;;;6.07;56.86;97530.59;4970298;28;20047;-41
2022/02/06 08:40:16;;;;;;;5.77;1.40;;;6.20;66.00;;;6.13;55.69;97531.00;4969794;28;20278;-41
2022/02/06 08:42:46;;;;;;;2.33;1.10;;;6.20;65.80;;;6.15;56.03;97532.56;4970826;28;20060;-41
2022/02/06 08:45:16;;;;;;;3.47;1.67;;;6.30;65.60;;;6.21;56.43;97533.81;4970364;28;20494;-41
2022/02/06 08:47:46;;;;;;;3.37;1.70;;;6.30;65.60;;;6.24;56.16;97539.69;4970624;28;20058;-41
2022/02/06 08:50:14;;;;;;;7.87;2.17;;;6.30;65.50;;;6.24;56.44;97546.75;4968541;28;20054;-41
2022/02/06 08:52:43;;;;;;;3.63;1.50;;;6.30;65.60;;;6.30;56.47;97549.72;4969622;28;20046;-41
2022/02/06 08:55:12;;;;;;;4.97;1.40;;;6.40;65.80;;;6.28;55.91;97534.94;4969965;28;20069;-41
2022/02/06 08:57:47;;;;;;;3.57;2.17;;;6.40;65.70;;;6.34;55.58;97528.25;4971116;28;20446;-41
2022/02/06 09:00:19;;;;;;;2.60;1.10;;;6.40;66.00;;;6.39;55.74;97526.88;4957688;28;20494;-41
2022/02/06 09:02:48;;;;;;;2.97;1.30;;;6.40;66.10;;;6.37;56.49;97539.41;4954014;28;20241;-41
2022/02/06 09:05:18;;;;;;;4.03;1.10;;;6.50;65.70;;;6.35;56.14;97533.41;4960870;28;20213;-41
2022/02/06 09:07:46;;;;;;;1.67;1.17;;;6.50;65.80;;;6.38;56.89;97530.50;4957455;28;20050;-41
2022/02/06 09:10:15;;;;;;;2.87;1.50;;;6.50;66.00;;;6.40;56.29;97522.44;4960582;28;20258;-41
2022/02/06 09:12:50;;;;;;;5.20;2.77;;;6.50;65.70;;;6.41;56.68;97534.69;4956240;28;20327;-41
2022/02/06 09:15:20;;;;;;;3.20;1.70;;;6.50;66.10;;;6.39;56.27;97528.69;4959994;28;20054;-41
2022/02/06 09:17:49;;;;;;;3.53;1.27;;;6.50;66.00;;;6.40;56.16;97517.97;4956982;28;20255;-41
2022/02/06 09:20:18;;;;;;;3.87;1.20;;;6.50;66.00;;;6.45;56.42;97514.91;4963282;28;20059;-41
2022/02/06 09:22:46;;;;;;;3.27;1.30;;;6.50;66.40;;;6.47;56.45;97526.19;4968027;28;20055;-41
2022/02/06 09:25:14;;;;;;;3.00;1.17;;;6.50;66.40;;;6.48;56.45;97493.50;4969917;28;20796;-41
2022/02/06 09:27:44;;;;;;;5.27;2.23;;;6.60;66.20;;;6.50;56.12;97486.25;4971223;28;20065;-41
2022/02/06 09:30:17;;;;;;;6.03;2.00;;;6.60;66.60;;;6.52;56.18;97512.56;4968911;28;20046;-41
2022/02/06 09:35:14;;;;;;;4.23;1.40;;;6.60;66.80;;;6.48;57.18;97482.91;4969589;28;19918;-41
2022/02/06 09:37:42;;;;;;;3.53;1.07;;;6.60;67.30;;;6.50;56.74;97483.59;4970209;28;20272;-41
2022/02/06 09:40:15;;;;;;;2.27;1.40;;;6.60;67.40;;;6.55;57.14;97480.53;4969017;28;20057;-42
2022/02/06 09:42:48;;;;;;;4.37;1.33;;;6.70;67.60;;;6.56;57.26;97471.63;4953854;28;20055;-41
2022/02/06 09:45:16;;;;;;;4.50;1.63;;;6.70;67.80;;;6.60;56.98;97463.28;4953392;28;20047;-41
2022/02/06 09:47:49;;;;;;;3.77;1.17;;;6.80;67.80;;;6.61;57.64;97445.59;4971298;28;20260;-41
2022/02/06 09:50:18;;;;;;;1.70;1.30;;;6.80;67.80;;;6.65;57.62;97449.59;4968940;28;20336;-41
2022/02/06 09:52:48;;;;;;;5.40;1.80;;;6.80;67.70;;;6.67;57.55;97442.41;4969822;28;20260;-41
2022/02/06 09:55:19;;;;;;;2.63;1.47;;;6.80;67.80;;;6.68;57.71;97433.47;4970292;28;20058;-41
2022/02/06 09:57:55;;;;;;;5.93;1.33;;;6.80;67.50;;;6.69;57.63;97427.22;4970344;28;20051;-41
2022/02/06 10:00:29;;;;;;;2.93;1.13;;;6.80;67.40;;;6.77;56.99;97431.78;4960309;28;20066;-39
2022/02/06 10:03:05;;;;;;;2.87;1.17;;;6.90;67.50;;;6.74;57.19;97424.13;4958955;29;20057;-40
2022/02/06 10:05:38;;;;;;;3.27;1.27;;;6.90;67.40;;;6.78;57.29;97397.22;4958187;29;20043;-40
2022/02/06 10:08:28;;;;;;;1.33;0.93;;;6.90;67.50;;;6.80;57.05;97405.03;4942348;29;21037;-40
2022/02/06 10:11:13;;;;;;;1.93;1.30;;;6.80;67.50;;;6.77;57.33;97394.75;4961873;29;20055;-40
2022/02/06 10:13:44;;;;;;;1.83;1.13;;;6.90;67.90;;;6.73;57.18;97394.19;4976895;28;20059;-40
2022/02/06 10:16:16;;;;;;;3.97;1.63;;;6.80;67.60;;;6.76;57.53;97406.28;4945216;29;20047;-40
2022/02/06 10:18:45;;;;;;;3.90;1.37;;;6.90;68.00;;;6.77;57.69;97406.16;4943081;29;20061;-40
2022/02/06 10:21:21;;;;;;;3.50;1.27;;;6.90;67.90;;;6.77;57.17;97402.69;4960693;29;20043;-41
2022/02/06 10:24:07;;;;;;;2.40;1.23;;;6.90;67.90;;;6.80;58.02;97400.56;4959651;29;20058;-41
2022/02/06 10:32:03;;;;;;;1.70;0.90;;;7.10;66.80;;;6.93;56.78;97375.63;4962212;29;20249;-40
2022/02/06 10:34:36;;;;;;;3.93;1.40;;;7.20;66.60;;;6.99;56.90;97373.22;4960432;29;20059;-40
2022/02/06 10:37:23;;;;;;;2.47;1.03;;;7.20;67.00;;;7.07;56.48;97373.31;4962145;28;20069;-40
2022/02/06 10:40:07;;;;;;;3.40;1.53;;;7.30;66.10;;;7.09;56.48;97354.63;4962039;29;20055;-40
2022/02/06 10:42:41;;;;;;;2.43;1.20;;;7.30;65.90;;;7.14;56.66;97352.41;4957734;28;20053;-40
2022/02/06 10:45:29;;;;;;;2.93;1.00;;;7.30;66.10;;;7.15;56.37;97355.88;4952684;29;20067;-40
2022/02/06 10:47:57;;;;;;;2.90;1.20;;;7.40;65.50;;;7.18;56.31;97360.88;4949659;29;20062;-40
2022/02/06 10:50:29;;;;;;;2.03;1.17;;;7.40;65.50;;;7.20;55.94;97362.41;4949994;29;20047;-40
2022/02/06 10:53:14;;;;;;;4.93;1.70;;;7.50;65.50;;;7.21;55.70;97319.06;4947531;29;20067;-40
2022/02/06 10:55:59;;;;;;;1.50;1.00;;;7.50;65.10;;;7.26;55.90;97303.56;4949637;28;20070;-40
2022/02/06 10:58:37;;;;;;;2.00;1.10;;;7.50;65.50;;;7.25;55.95;97296.59;4950099;28;20055;-41
2022/02/06 11:01:20;;;;;;;4.40;1.53;;;7.50;64.70;;;7.33;56.06;97295.00;4968424;28;20053;-40
2022/02/06 11:03:51;;;;;;;4.63;2.30;;;7.50;65.20;;;7.40;56.15;97290.78;4969052;28;20053;-40
2022/02/06 11:06:43;;;;;;;2.80;1.50;;;7.60;65.20;;;7.39;55.26;97283.84;4967295;28;20054;-40
2022/02/06 11:09:31;;;;;;;1.37;1.00;;;7.60;64.60;;;7.40;55.62;97288.13;4967575;28;20062;-40
2022/02/06 11:12:03;;;;;;;11.47;5.03;;;7.60;64.50;;;7.42;55.82;97294.94;4969403;28;20057;-40
2022/02/06 11:14:34;;;;;;;3.57;1.27;;;7.60;65.10;;;7.37;55.87;97283.16;4958561;28;20059;-40
2022/02/06 11:17:20;;;;;;;2.87;1.20;;;7.60;64.60;;;7.39;55.66;97276.72;4946618;28;20069;-40
2022/02/06 11:20:01;;;;;;;3.33;1.23;;;7.60;64.90;;;7.30;55.93;97285.56;4947237;29;20249;-39
2022/02/06 11:22:30;;;;;;;2.43;1.10;;;7.50;65.30;;;7.29;56.34;97271.50;4948503;29;20055;-40
2022/02/06 11:25:01;;;;;;;1.80;1.03;;;7.50;66.30;;;7.19;56.88;97261.94;4962853;28;20055;-40
2022/02/06 11:27:30;;;;;;;0.70;0.70;;;7.40;66.70;;;7.27;57.42;97264.69;4950330;28;20055;-40
2022/02/06 11:29:59;;;;;;;3.27;1.10;;;7.40;67.20;;;7.30;57.30;97285.56;4949631;29;20367;-40
2022/02/06 11:32:28;;;;;;;3.80;1.20;;;7.50;67.80;;;7.23;57.69;97245.63;4947820;29;20051;-41
2022/02/06 11:34:58;;;;;;;2.27;1.30;;;7.40;68.30;;;7.32;57.69;97238.56;4948789;29;20069;-41
2022/02/06 11:46:33;;;;;;;1.23;0.80;;;7.50;69.00;;;7.40;58.39;97227.22;4949070;29;20051;-40
2022/02/06 11:49:12;;;;;;;1.37;0.80;;;7.60;69.60;;;7.39;58.69;97221.09;4952876;28;20068;-40
2022/02/06 11:51:55;;;;;;;1.40;0.67;;;7.50;70.00;;;7.39;58.16;97209.69;4968650;28;20268;-41
2022/02/06 11:54:35;;;;;;;1.65;1.23;;;7.60;68.80;;;7.37;58.52;97191.28;4965684;28;20066;-41
2022/02/06 11:57:15;;;;;;;1.33;0.90;;;7.50;69.40;;;7.42;58.17;97189.00;4968243;28;20059;-40
2022/02/06 12:00:03;;;;;;;1.50;0.63;;;7.50;69.70;;;7.38;58.70;97170.94;4967897;28;20069;-40
2022/02/06 12:02:48;;;;;;;2.37;0.80;;;7.60;70.20;;;7.44;58.70;97162.38;4970273;28;20372;-41
2022/02/06 12:05:27;;;;;;;1.00;0.70;;;7.60;69.50;;;7.45;58.63;97164.88;4967900;28;20051;-40
2022/02/06 12:08:10;;;;;;;1.30;0.70;;;7.70;69.50;;;7.40;59.02;97151.25;4968430;28;20054;-39
2022/02/06 12:10:38;;;;;;;2.27;0.80;;;7.70;69.30;;;7.41;58.95;97147.63;4967432;28;20062;-40
2022/02/06 12:13:32;;;;;;;0.53;0.50;;;7.60;69.50;;;7.34;58.81;97143.91;4967613;28;20085;-40
2022/02/06 12:16:05;;;;;;;1.88;0.70;;;7.60;69.70;;;7.43;58.79;97134.25;4966715;28;20374;-40
2022/02/06 12:18:37;;;;;;;1.80;0.93;;;7.60;70.40;;;7.33;59.57;97142.28;4967279;28;20079;-39
2022/02/06 12:21:20;;;;;;;0.70;0.60;;;7.50;71.10;;;7.23;59.39;97115.88;4968054;28;20050;-40
2022/02/06 12:23:51;;;;;;;1.67;0.90;;;7.50;70.60;;;7.32;59.18;97108.00;4965946;28;20438;-39
2022/02/06 12:29:08;;;;;;;2.70;0.97;;;7.50;71.10;;;7.33;59.25;97073.41;4965771;28;20062;-40
2022/02/06 12:32:05;;;;;;;1.27;0.90;;;7.50;71.20;;;7.43;59.32;97062.72;4968110;28;20271;-39
2022/02/06 12:37:41;;;;;;;2.00;0.53;;;7.60;70.70;;;7.49;59.26;97073.53;4967561;28;20056;-40
2022/02/06 12:40:17;;;;;;;0.70;0.60;;;7.60;70.60;;;7.54;58.83;97059.81;4966581;28;20049;-40
2022/02/06 12:42:49;;;;;;;0.47;0.40;;;7.70;70.50;;;7.60;58.94;97061.00;4967369;28;20050;-40
2022/02/06 12:45:21;;;;;;;1.73;0.80;;;7.70;70.70;;;7.54;59.32;97057.19;4966954;28;20046;-40
2022/02/06 12:47:57;;;;;;;1.13;0.80;;;7.70;70.60;;;7.41;59.01;97051.47;4967422;28;20046;-40
2022/02/06 12:50:33;;;;;;;0.70;0.70;;;7.60;70.40;;;7.42;59.68;97045.97;4966559;28;20329;-40
2022/02/06 12:53:05;;;;;;;1.40;1.03;;;7.60;70.60;;;7.46;58.97;97033.25;4966430;28;20063;-40
2022/02/06 12:55:36;;;;;;;1.20;1.00;;;7.60;71.20;;;7.47;59.48;97038.41;4966727;28;20062;-40
2022/02/06 12:58:08;;;;;;;1.13;0.63;;;7.60;71.00;;;7.43;59.35;97034.41;4967100;28;20118;-40
2022/02/06 13:00:52;;;;;;;1.33;0.90;;;7.50;71.50;;;7.42;59.71;97022.16;4966409;28;20055;-40
2022/02/06 13:03:38;;;;;;;2.22;0.68;;;7.50;72.40;;;7.35;60.76;97036.16;4966888;28;20077;-39
2022/02/06 13:06:16;;;;;;;1.13;0.70;;;7.50;72.50;;;7.39;59.75;97011.88;4954445;28;20047;-40
2022/02/06 13:08:44;;;;;;;1.10;0.73;;;7.50;72.40;;;7.35;60.50;97013.19;4970383;28;20065;-40
2022/02/06 13:11:18;;;;;;;1.40;0.80;;;7.50;74.00;;;7.39;60.61;96995.19;4968173;28;20390;-40
2022/02/06 13:14:23;;;;;;;0.80;0.60;;;7.40;73.80;;;7.30;60.64;96996.94;4970617;28;20059;-40
2022/02/06 13:27:36;;;;;;;1.13;0.63;;;7.20;74.70;;;7.12;61.89;96959.09;4969724;28;20069;-40
2022/02/06 13:38:12;;;;;;;3.17;0.90;;;7.20;75.90;;;7.07;61.63;96930.44;4969966;28;20054;-41
2022/02/06 13:40:48;;;;;;;1.35;0.77;;;7.10;76.60;;;7.01;62.74;96923.97;4970029;28;20055;-41
2022/02/06 13:43:21;;;;;;;1.70;1.00;;;7.10;77.40;;;7.03;62.67;96944.97;4970441;28;20047;-40
2022/02/06 13:45:55;;;;;;;1.63;0.97;;;7.10;78.00;;;7.04;62.69;96913.06;4952483;28;20050;-40
2022/02/06 13:48:26;;;;;;;0.70;0.70;;;7.10;78.30;;;6.96;62.28;96910.38;4968798;28;20054;-39
2022/02/06 13:51:00;;;;;;;2.30;1.47;;;7.00;78.40;;;6.95;62.87;96918.47;4953546;28;20366;-40
2022/02/06 13:53:33;;;;;;;2.33;1.23;;;7.00;79.20;;;6.87;63.75;96900.72;4968761;28;20060;-40
2022/02/06 13:56:04;;;;;;;4.30;1.50;;;7.00;80.40;;;6.89;62.95;96907.50;4967681;28;20063;-40